Fort Wayne International Airport Fort Wayne US
ICAO: KFWA
IATA: FWA
Category: Large
Scheduled Services: Yes

Elevation: 814 ft
TransAlt. 18000 ft.

Airport Communications:
APP/DEP:127.2
ATIS:121.25
CLNC DEL:124.75
GND:121.9
122FW COMD POST OPS:138.4
TERRE HAUTE RDO:122.2
TWR:119.1
UNICOM:122.95

KFWA Zoom In..

Runways:

(A) RW 05 length 11981 ft width 150 ft
ILS 111.90 / hdg 47

(B) RW 09 length 4001 ft width 75 ft
---- / hdg 93

(C) RW 14 length 8002 ft width 150 ft
---- / hdg 138

(D) RW 23 length 11981 ft width 150 ft
---- / hdg 227

(E) RW 27 length 4001 ft width 75 ft
---- / hdg 273

(F) RW 32 length 8002 ft width 150 ft
ILS 109.90 / hdg 318

Location; KFWA
Day. 16 / Time. 17.54 Zulu
* Altimeter: 29.93
* Temperature: 30° c. 86°f.
* Wind from: 280° Speed 07 kn.
Dewpoint: 24° c.
Visibility: 10 Statute Miles.
Clouds: Scattered 3100 ft.
Clouds: Broken 9000 ft.
Clouds: Broken 25000 ft.
Conditions: Towering CB.

KFWA 161754Z 28007KT 10SM SCT031TCU BKN090 BKN250 30/24 A2993 RMK AO2 SLP127 TCU S-SW 60000 T03000239 10311 20233 58016 $


Wind From 280°
Speed 07 kn.

 
 
jpsmedia.com for Web Design worldairports.se 2018   terms of use